Iloilo, Philippines
Current Conditions -  °F | °C
As of 10:00 AM on Thursday 27 Nov 2014 (Local Time) from RPVM Reporting Station
Light Rain Light Rain  
Wind Chill: 81°   Ceiling: 9000
Heat Index: 88°   Visibility: 6mi
Dew Point: 79°   Wind: 3mph
Humidity: 94%   Direction: 40°NE
Pressure: 29.8"   Gusts: NA
Location:  10.69°N, 122.55°E
Report Text: RPVM 270200Z 04003KT 9000 -RA SCT020 OVC090 27/26 Q1009 RMK A2980
Loading
Personal Weather Stations






























Interactive Weather Map New forecast layout! Learn more

10-Day Weather Forecast

Advertisements
Track Severe Weather on mobile